Time;durP1;ratioP1;P1;durP2;ratioP2;P2;SDS_P1;SDS_P2;PMS_P1;PMS_P2;Temp;Humidity;BMP_temperature;BMP_pressure;BME280_temperature;BME280_humidity;BME280_pressure;Samples;Min_cycle;Max_cycle;Signal;HPM_P1;HPM_P2
2021/10/14 00:01:01;;;;;;;6.23;5.30;;;6.10;99.90;;;;;;5051165;28;20662;-66
2021/10/14 00:03:27;;;;;;;4.63;4.20;;;6.10;99.90;;;;;;5049786;28;20331;-66
2021/10/14 00:05:52;;;;;;;6.53;5.87;;;6.10;99.90;;;;;;5051225;28;20460;-66
2021/10/14 00:08:18;;;;;;;8.50;6.50;;;6.10;99.90;;;;;;5050723;28;20211;-66
2021/10/14 00:10:43;;;;;;;6.97;6.13;;;6.10;99.90;;;;;;5054233;28;20182;-65
2021/10/14 00:13:09;;;;;;;6.43;5.33;;;6.10;99.90;;;;;;5055092;28;20178;-66
2021/10/14 00:15:35;;;;;;;5.90;5.30;;;6.10;99.90;;;;;;5055005;28;20588;-67
2021/10/14 00:18:01;;;;;;;6.13;4.80;;;6.00;99.90;;;;;;5054972;28;20225;-66
2021/10/14 00:20:27;;;;;;;7.70;5.00;;;5.90;99.90;;;;;;5041629;28;20174;-66
2021/10/14 00:22:53;;;;;;;8.20;5.40;;;5.90;99.90;;;;;;5055258;28;20439;-66
2021/10/14 00:25:21;;;;;;;7.23;5.73;;;5.90;99.90;;;;;;5055079;28;20469;-66
2021/10/14 00:27:51;;;;;;;5.67;4.30;;;6.00;99.90;;;;;;5053996;28;20635;-66
2021/10/14 00:30:17;;;;;;;4.60;4.20;;;6.00;99.90;;;;;;5054874;28;20459;-67
2021/10/14 00:32:43;;;;;;;4.90;4.50;;;5.90;99.90;;;;;;5054837;28;20427;-66
2021/10/14 00:35:09;;;;;;;6.57;5.20;;;6.00;99.90;;;;;;5054792;28;20443;-65
2021/10/14 00:37:35;;;;;;;5.90;4.20;;;5.90;99.90;;;;;;5054317;28;20812;-67
2021/10/14 00:40:00;;;;;;;5.30;4.90;;;5.80;99.90;;;;;;5054655;28;20420;-66
2021/10/14 00:42:26;;;;;;;5.47;4.37;;;5.80;99.90;;;;;;5054687;28;20174;-65
2021/10/14 00:44:54;;;;;;;5.33;4.13;;;5.90;99.90;;;;;;5054338;28;20256;-65
2021/10/14 00:47:22;;;;;;;6.30;4.80;;;5.90;99.90;;;;;;5054116;28;20556;-67
2021/10/14 00:49:47;;;;;;;5.77;4.70;;;5.80;99.90;;;;;;5054333;28;20435;-66
2021/10/14 00:52:13;;;;;;;5.20;4.17;;;5.90;99.90;;;;;;5054426;28;20431;-66
2021/10/14 00:54:39;;;;;;;6.07;4.57;;;5.90;99.90;;;;;;5054207;28;20185;-66
2021/10/14 00:57:05;;;;;;;6.80;5.10;;;5.70;99.90;;;;;;5053432;28;20182;-66
2021/10/14 00:59:31;;;;;;;7.97;6.03;;;5.80;99.90;;;;;;5054188;28;20866;-66
2021/10/14 01:01:57;;;;;;;5.63;4.73;;;5.80;99.90;;;;;;5054207;28;20825;-66
2021/10/14 01:04:23;;;;;;;6.30;4.90;;;5.80;99.90;;;;;;5054190;28;20442;-66
2021/10/14 01:06:48;;;;;;;7.10;4.20;;;5.70;99.90;;;;;;5054134;28;20295;-66
2021/10/14 01:09:14;;;;;;;4.77;4.37;;;5.80;99.90;;;;;;5046832;28;20571;-66
2021/10/14 01:11:40;;;;;;;4.90;4.40;;;5.80;99.90;;;;;;5054126;28;20213;-66
2021/10/14 01:14:06;;;;;;;8.17;4.60;;;5.80;99.90;;;;;;5053827;28;20181;-66
2021/10/14 01:16:43;;;;;;;6.63;4.53;;;5.80;99.90;;;;;;5053810;28;20436;-66
2021/10/14 01:19:10;;;;;;;4.80;4.30;;;5.80;99.90;;;;;;5053575;28;20462;-66
2021/10/14 01:21:36;;;;;;;6.17;5.10;;;5.60;99.90;;;;;;5053787;28;20443;-66
2021/10/14 01:24:02;;;;;;;5.00;4.60;;;5.60;99.90;;;;;;5053720;28;20436;-66
2021/10/14 01:26:28;;;;;;;8.40;4.97;;;5.60;99.90;;;;;;5053964;28;20484;-66
2021/10/14 01:28:54;;;;;;;5.33;4.83;;;5.60;99.90;;;;;;5052154;28;20504;-66
2021/10/14 01:31:27;;;;;;;5.30;4.80;;;5.70;99.90;;;;;;5053317;28;21009;-66
2021/10/14 01:33:53;;;;;;;6.30;4.70;;;5.70;99.90;;;;;;5045032;28;20912;-66
2021/10/14 01:36:20;;;;;;;7.10;4.93;;;5.70;99.90;;;;;;5053522;28;20573;-65
2021/10/14 01:38:45;;;;;;;5.77;5.20;;;5.70;99.90;;;;;;5053174;28;20460;-65
2021/10/14 01:41:12;;;;;;;6.00;4.63;;;5.70;99.90;;;;;;5053590;28;20439;-66
2021/10/14 01:43:38;;;;;;;6.17;4.73;;;5.70;99.90;;;;;;5053622;28;20186;-65
2021/10/14 01:46:04;;;;;;;5.80;4.97;;;5.80;99.90;;;;;;5053491;28;20442;-66
2021/10/14 01:48:30;;;;;;;5.73;4.93;;;5.80;99.90;;;;;;5052900;28;20235;-66
2021/10/14 01:50:57;;;;;;;4.93;4.53;;;5.90;99.90;;;;;;5052826;28;20455;-66
2021/10/14 01:53:22;;;;;;;5.80;4.70;;;5.90;99.90;;;;;;5051952;28;20181;-66
2021/10/14 01:55:48;;;;;;;6.80;4.60;;;5.80;99.90;;;;;;5053394;28;20436;-66
2021/10/14 01:58:13;;;;;;;4.97;4.50;;;5.90;99.90;;;;;;5046543;28;20216;-65
2021/10/14 02:00:40;;;;;;;5.60;4.73;;;5.80;99.90;;;;;;5052822;28;20181;-66
2021/10/14 02:03:06;;;;;;;5.47;4.90;;;5.80;99.90;;;;;;5053231;28;20755;-66
2021/10/14 02:05:32;;;;;;;7.80;5.00;;;5.80;99.90;;;;;;5053056;28;21035;-66
2021/10/14 02:07:58;;;;;;;8.37;4.80;;;5.60;99.90;;;;;;5052791;28;20467;-66
2021/10/14 02:10:23;;;;;;;5.60;3.97;;;5.60;99.90;;;;;;5052812;28;20424;-66
2021/10/14 02:12:49;;;;;;;4.93;4.20;;;5.60;99.90;;;;;;5053126;28;20436;-66
2021/10/14 02:15:15;;;;;;;5.67;4.93;;;5.60;99.90;;;;;;5052739;28;20185;-66
2021/10/14 02:17:40;;;;;;;8.63;5.47;;;5.70;99.90;;;;;;5052636;28;20217;-66
2021/10/14 02:20:07;;;;;;;6.53;5.93;;;5.60;99.90;;;;;;5052751;28;20264;-66
2021/10/14 02:22:33;;;;;;;6.97;5.50;;;5.50;99.90;;;;;;5052560;28;20557;-66
2021/10/14 02:24:59;;;;;;;5.73;5.13;;;5.60;99.90;;;;;;5052710;28;20439;-66
2021/10/14 02:27:24;;;;;;;5.77;5.10;;;5.50;99.90;;;;;;5052350;28;20184;-66
2021/10/14 02:29:50;;;;;;;6.90;5.00;;;5.50;99.90;;;;;;5052305;28;20440;-66
2021/10/14 02:32:16;;;;;;;7.30;5.17;;;5.50;99.90;;;;;;5051879;28;20550;-66
2021/10/14 02:34:41;;;;;;;8.30;4.27;;;5.40;99.90;;;;;;5052436;28;20178;-66
2021/10/14 02:37:07;;;;;;;6.57;5.37;;;5.50;99.90;;;;;;5052548;28;20248;-65
2021/10/14 02:39:32;;;;;;;5.30;4.80;;;5.50;99.90;;;;;;5051778;28;20239;-66
2021/10/14 02:41:58;;;;;;;6.60;4.70;;;5.50;99.90;;;;;;5052571;28;20205;-67
2021/10/14 02:44:23;;;;;;;7.30;4.97;;;5.50;99.90;;;;;;5043411;28;20553;-65
2021/10/14 02:46:49;;;;;;;5.50;4.80;;;5.40;99.90;;;;;;5049149;28;20606;-66
2021/10/14 02:49:14;;;;;;;5.43;4.53;;;5.40;99.90;;;;;;5048449;28;20244;-65
2021/10/14 02:51:40;;;;;;;5.60;4.60;;;5.40;99.90;;;;;;5049004;28;20260;-65
2021/10/14 02:54:05;;;;;;;6.60;5.13;;;5.40;99.90;;;;;;5048679;28;20216;-66
2021/10/14 02:56:31;;;;;;;5.20;4.43;;;5.40;99.90;;;;;;5048528;28;20177;-67
2021/10/14 02:58:56;;;;;;;5.50;5.00;;;5.30;99.90;;;;;;5047278;28;20859;-65
2021/10/14 03:01:23;;;;;;;6.63;5.27;;;5.30;99.90;;;;;;5048234;28;20247;-66
2021/10/14 03:03:48;;;;;;;6.87;5.13;;;5.30;99.90;;;;;;5052142;28;20647;-66
2021/10/14 03:06:14;;;;;;;4.60;4.20;;;5.20;99.90;;;;;;5051662;28;20436;-67
2021/10/14 03:08:39;;;;;;;6.50;5.10;;;5.20;99.90;;;;;;5051677;28;20201;-66
2021/10/14 03:11:05;;;;;;;6.73;4.77;;;5.20;99.90;;;;;;5051942;28;20182;-66
2021/10/14 03:13:30;;;;;;;4.70;4.20;;;5.10;99.90;;;;;;5051785;28;20201;-66
2021/10/14 03:15:56;;;;;;;5.30;3.83;;;5.20;99.90;;;;;;5052138;28;20224;-66
2021/10/14 03:18:21;;;;;;;5.60;5.07;;;5.20;99.90;;;;;;5051258;28;20194;-66
2021/10/14 03:20:47;;;;;;;4.67;4.00;;;5.20;99.90;;;;;;5051654;28;20170;-66
2021/10/14 03:23:12;;;;;;;7.10;4.27;;;5.30;99.90;;;;;;5051728;28;20174;-66
2021/10/14 03:25:38;;;;;;;4.83;4.37;;;5.30;99.90;;;;;;5051469;28;20534;-66
2021/10/14 03:28:04;;;;;;;6.43;4.60;;;5.30;99.90;;;;;;5051126;28;20201;-67
2021/10/14 03:30:30;;;;;;;7.10;5.13;;;5.40;99.90;;;;;;5040913;28;20174;-66
2021/10/14 03:32:55;;;;;;;4.83;4.40;;;5.40;99.90;;;;;;5052134;28;20431;-66
2021/10/14 03:35:21;;;;;;;5.13;4.60;;;5.40;99.90;;;;;;5051338;28;20181;-66
2021/10/14 03:37:47;;;;;;;5.63;4.73;;;5.40;99.90;;;;;;5051160;28;20248;-66
2021/10/14 03:40:13;;;;;;;6.30;4.77;;;5.40;99.90;;;;;;5051284;28;20178;-66
2021/10/14 03:42:39;;;;;;;4.80;4.40;;;5.40;99.90;;;;;;5051281;28;20503;-68
2021/10/14 03:45:05;;;;;;;6.87;4.83;;;5.30;99.90;;;;;;5050895;28;20523;-65
2021/10/14 03:47:31;;;;;;;6.47;5.17;;;5.20;99.90;;;;;;5049469;28;20188;-66
2021/10/14 03:49:56;;;;;;;7.00;4.83;;;5.20;99.90;;;;;;5051431;28;20562;-66
2021/10/14 03:52:22;;;;;;;5.70;5.20;;;5.20;99.90;;;;;;5051383;28;20248;-67
2021/10/14 03:54:47;;;;;;;5.13;4.53;;;5.30;99.90;;;;;;5051380;28;20169;-66
2021/10/14 03:57:13;;;;;;;5.57;4.60;;;5.20;99.90;;;;;;5050961;28;20182;-69
2021/10/14 03:59:38;;;;;;;5.07;4.30;;;5.20;99.90;;;;;;5051114;28;20220;-67
2021/10/14 04:02:04;;;;;;;5.90;4.80;;;5.20;99.90;;;;;;5051765;28;20174;-66
2021/10/14 04:04:30;;;;;;;5.60;4.47;;;5.20;99.90;;;;;;5051281;28;20177;-67
2021/10/14 04:06:55;;;;;;;4.90;4.30;;;5.20;99.90;;;;;;5051287;28;20652;-65
2021/10/14 04:09:21;;;;;;;6.93;4.97;;;5.00;99.90;;;;;;5049454;28;20205;-67
2021/10/14 04:11:46;;;;;;;5.97;4.43;;;4.90;99.90;;;;;;5051100;28;20180;-67
2021/10/14 04:14:12;;;;;;;6.30;4.63;;;4.90;99.90;;;;;;5060327;28;20177;-66
2021/10/14 04:16:37;;;;;;;4.87;4.30;;;5.00;99.90;;;;;;5060611;28;20180;-67
2021/10/14 04:19:03;;;;;;;6.73;4.50;;;5.10;99.90;;;;;;5050840;28;20667;-66
2021/10/14 04:21:28;;;;;;;4.23;3.77;;;5.00;99.90;;;;;;5064366;28;20200;-65
2021/10/14 04:23:56;;;;;;;8.43;4.20;;;5.00;99.90;;;;;;5049777;28;20565;-67
2021/10/14 04:26:21;;;;;;;10.03;4.50;;;5.00;99.90;;;;;;5051256;28;20180;-66
2021/10/14 04:28:47;;;;;;;4.90;4.40;;;5.10;99.90;;;;;;5050393;28;20555;-66
2021/10/14 04:31:13;;;;;;;13.43;5.20;;;5.10;99.90;;;;;;5051144;28;20257;-67
2021/10/14 04:33:39;;;;;;;6.60;4.30;;;5.20;99.90;;;;;;5050835;28;20178;-67
2021/10/14 04:36:05;;;;;;;5.13;4.60;;;5.20;99.90;;;;;;5050862;28;20427;-67
2021/10/14 04:38:31;;;;;;;8.37;4.37;;;5.20;99.90;;;;;;5050968;28;20276;-66
2021/10/14 04:40:56;;;;;;;8.93;4.17;;;5.20;99.90;;;;;;5057523;28;20551;-67
2021/10/14 04:43:23;;;;;;;4.00;3.60;;;5.30;99.90;;;;;;5051158;28;20519;-67
2021/10/14 04:45:50;;;;;;;5.00;4.50;;;5.40;99.90;;;;;;5050356;28;20239;-67
2021/10/14 04:48:16;;;;;;;4.43;4.03;;;5.40;99.90;;;;;;5050341;28;20460;-67
2021/10/14 04:50:41;;;;;;;6.10;4.30;;;5.50;99.90;;;;;;5050698;28;20948;-67
2021/10/14 04:53:07;;;;;;;8.23;5.40;;;5.50;99.90;;;;;;5050767;28;20177;-66
2021/10/14 04:55:32;;;;;;;5.00;4.13;;;5.50;99.90;;;;;;5051785;28;20181;-67
2021/10/14 04:58:00;;;;;;;4.30;3.70;;;5.50;99.90;;;;;;5054257;28;20576;-67
2021/10/14 05:00:25;;;;;;;5.70;3.60;;;5.50;99.90;;;;;;5054385;28;20174;-67
2021/10/14 05:02:51;;;;;;;5.50;4.87;;;5.40;99.90;;;;;;5054151;28;20442;-67
2021/10/14 05:05:16;;;;;;;6.00;4.07;;;5.40;99.90;;;;;;5054279;28;20256;-66
2021/10/14 05:07:42;;;;;;;5.67;4.03;;;5.40;99.90;;;;;;5053432;28;20202;-67
2021/10/14 05:10:08;;;;;;;5.47;4.50;;;5.50;99.90;;;;;;5053776;28;20254;-68
2021/10/14 05:12:35;;;;;;;4.20;3.80;;;5.50;99.90;;;;;;5053780;28;20537;-67
2021/10/14 05:15:04;;;;;;;6.17;4.70;;;5.60;99.90;;;;;;5053755;28;20807;-67
2021/10/14 05:17:30;;;;;;;5.10;4.60;;;5.60;99.90;;;;;;5053432;28;20478;-67
2021/10/14 05:19:55;;;;;;;7.20;4.53;;;5.70;99.90;;;;;;5054064;28;20432;-65
2021/10/14 05:22:21;;;;;;;4.80;3.77;;;5.70;99.90;;;;;;5053565;28;21890;-67
2021/10/14 05:24:46;;;;;;;8.87;5.30;;;5.80;99.90;;;;;;5054272;28;20197;-67
2021/10/14 05:27:12;;;;;;;6.13;3.97;;;5.80;99.90;;;;;;5054231;28;20192;-67
2021/10/14 05:29:37;;;;;;;6.83;4.50;;;5.80;99.90;;;;;;5051098;28;20198;-66
2021/10/14 05:32:03;;;;;;;4.67;3.97;;;5.90;99.90;;;;;;5053994;28;20162;-66
2021/10/14 05:34:28;;;;;;;6.00;4.50;;;6.00;99.90;;;;;;5053664;28;20186;-67
2021/10/14 05:36:54;;;;;;;5.50;4.30;;;6.00;99.90;;;;;;5053559;28;20184;-67
2021/10/14 05:39:19;;;;;;;14.10;5.03;;;6.00;99.90;;;;;;5052918;28;20694;-66
2021/10/14 05:41:45;;;;;;;6.37;4.70;;;6.00;99.90;;;;;;5053568;28;20178;-67
2021/10/14 05:44:10;;;;;;;9.23;4.83;;;6.00;99.90;;;;;;5053455;28;20215;-67
2021/10/14 05:46:36;;;;;;;7.30;5.17;;;5.90;99.90;;;;;;5053621;28;20189;-66
2021/10/14 05:49:01;;;;;;;4.57;4.10;;;6.00;99.90;;;;;;5051399;28;20205;-67
2021/10/14 05:51:27;;;;;;;5.10;4.23;;;6.10;99.90;;;;;;5053399;28;20181;-67
2021/10/14 05:53:52;;;;;;;6.43;4.20;;;6.10;99.90;;;;;;5053477;28;20667;-66
2021/10/14 05:56:18;;;;;;;5.37;4.80;;;6.20;99.90;;;;;;5053152;28;20213;-66
2021/10/14 05:58:43;;;;;;;5.30;4.90;;;6.20;99.90;;;;;;5052723;28;20201;-67
2021/10/14 06:01:09;;;;;;;7.43;4.93;;;6.20;99.90;;;;;;5052636;28;20186;-66
2021/10/14 06:03:38;;;;;;;5.90;4.67;;;6.30;99.90;;;;;;5052556;28;20577;-63
2021/10/14 06:06:03;;;;;;;5.63;4.53;;;6.20;99.90;;;;;;5052611;28;20185;-67
2021/10/14 06:08:29;;;;;;;5.13;4.63;;;6.20;99.90;;;;;;5052489;28;20506;-67
2021/10/14 06:10:54;;;;;;;9.23;5.73;;;6.20;99.90;;;;;;5053166;28;20257;-66
2021/10/14 06:13:20;;;;;;;5.40;4.57;;;6.20;99.90;;;;;;5052743;28;20181;-66
2021/10/14 06:15:46;;;;;;;9.47;5.07;;;6.30;99.90;;;;;;5052299;28;20173;-67
2021/10/14 06:18:11;;;;;;;8.90;5.60;;;6.40;99.90;;;;;;5052617;28;20209;-67
2021/10/14 06:20:37;;;;;;;7.10;4.83;;;6.50;99.90;;;;;;5051702;28;20674;-66
2021/10/14 06:23:04;;;;;;;7.63;5.43;;;6.50;99.90;;;;;;5050718;28;20674;-67
2021/10/14 06:25:29;;;;;;;4.70;4.20;;;6.60;99.90;;;;;;5052571;28;20628;-66
2021/10/14 06:27:55;;;;;;;6.23;4.67;;;6.80;99.90;;;;;;5052305;28;20517;-67
2021/10/14 06:30:20;;;;;;;8.13;5.30;;;6.90;99.90;;;;;;5052409;28;20268;-66
2021/10/14 06:32:47;;;;;;;7.33;5.10;;;7.10;99.90;;;;;;5046797;28;20201;-66
2021/10/14 06:35:12;;;;;;;5.67;3.97;;;7.20;99.90;;;;;;5050064;28;20182;-67
2021/10/14 06:37:38;;;;;;;6.07;5.33;;;7.30;99.90;;;;;;5052344;28;20442;-67
2021/10/14 06:40:04;;;;;;;6.57;5.50;;;7.30;99.90;;;;;;5052341;28;20177;-67
2021/10/14 06:42:29;;;;;;;7.97;5.87;;;7.40;99.90;;;;;;5051253;28;20537;-67
2021/10/14 06:44:55;;;;;;;6.27;5.67;;;7.60;99.90;;;;;;5052201;28;20446;-66
2021/10/14 06:47:21;;;;;;;6.77;5.80;;;7.80;99.90;;;;;;5050644;28;20196;-66
2021/10/14 06:49:48;;;;;;;16.90;5.30;;;7.90;99.90;;;;;;5051920;28;20209;-66
2021/10/14 06:52:15;;;;;;;7.40;5.00;;;8.10;99.90;;;;;;5051662;28;20260;-67
2021/10/14 06:54:41;;;;;;;6.80;5.43;;;8.20;99.90;;;;;;5024619;28;20801;-64
2021/10/14 06:57:07;;;;;;;6.03;4.80;;;8.30;99.90;;;;;;5033126;28;20429;-70
2021/10/14 06:59:33;;;;;;;6.70;4.90;;;8.40;99.90;;;;;;5051285;28;20197;-66
2021/10/14 07:01:58;;;;;;;8.53;5.63;;;8.60;99.90;;;;;;5050423;28;20257;-66
2021/10/14 07:04:24;;;;;;;5.73;5.20;;;8.70;99.90;;;;;;5047030;28;20531;-67
2021/10/14 07:06:49;;;;;;;6.80;5.63;;;8.70;99.90;;;;;;5051342;28;20192;-67
2021/10/14 07:09:15;;;;;;;6.93;4.90;;;8.60;99.90;;;;;;5051074;28;20213;-67
2021/10/14 07:11:50;;;;;;;8.03;5.00;;;8.40;99.90;;;;;;5050085;28;20177;-67
2021/10/14 07:14:15;;;;;;;7.90;4.87;;;8.30;99.90;;;;;;5045226;28;20187;-66
2021/10/14 07:16:41;;;;;;;5.97;4.80;;;8.20;99.90;;;;;;5049954;28;20792;-67
2021/10/14 07:19:06;;;;;;;6.10;4.30;;;8.30;99.90;;;;;;5049652;28;20208;-66
2021/10/14 07:21:32;;;;;;;9.03;4.73;;;8.50;99.90;;;;;;5050911;28;20182;-66
2021/10/14 07:23:57;;;;;;;5.70;4.70;;;8.70;99.90;;;;;;5047636;28;20831;-67
2021/10/14 07:26:23;;;;;;;5.60;4.53;;;8.70;99.90;;;;;;5051358;28;20200;-67
2021/10/14 07:28:48;;;;;;;7.53;4.50;;;8.70;99.90;;;;;;5051232;28;20205;-66
2021/10/14 07:31:14;;;;;;;8.83;5.00;;;8.70;99.90;;;;;;5051669;28;20178;-67
2021/10/14 07:33:39;;;;;;;5.03;3.83;;;8.70;99.90;;;;;;5046769;28;20188;-67
2021/10/14 07:36:07;;;;;;;6.83;4.23;;;8.90;99.90;;;;;;5051288;28;20520;-67
2021/10/14 07:38:32;;;;;;;5.27;4.50;;;9.10;99.90;;;;;;5037293;28;20785;-67
2021/10/14 07:40:58;;;;;;;5.87;4.70;;;9.10;99.90;;;;;;5047247;28;20526;-66
2021/10/14 07:43:24;;;;;;;8.27;4.10;;;9.40;99.90;;;;;;5050508;28;20189;-67
2021/10/14 07:45:49;;;;;;;7.83;4.20;;;9.60;99.90;;;;;;5050382;28;20177;-67
2021/10/14 07:48:15;;;;;;;5.20;4.37;;;10.00;99.90;;;;;;5050493;28;20216;-66
2021/10/14 07:50:41;;;;;;;7.33;4.57;;;10.10;99.90;;;;;;5051086;28;20197;-66
2021/10/14 07:53:18;;;;;;;5.03;4.00;;;10.20;99.90;;;;;;5051118;28;20182;-67
2021/10/14 07:55:46;;;;;;;7.33;4.50;;;10.50;99.90;;;;;;5044029;28;20794;-65
2021/10/14 07:58:12;;;;;;;6.83;4.40;;;10.60;99.90;;;;;;5050380;28;20452;-65
2021/10/14 08:00:38;;;;;;;8.07;4.83;;;10.30;99.90;;;;;;5048561;28;20432;-66
2021/10/14 08:03:04;;;;;;;4.63;4.23;;;10.30;99.90;;;;;;5051073;28;20870;-66
2021/10/14 08:05:30;;;;;;;5.50;3.80;;;10.70;99.90;;;;;;5051076;28;20518;-67
2021/10/14 08:07:57;;;;;;;6.07;4.20;;;10.70;99.90;;;;;;5048682;28;20228;-67
2021/10/14 08:10:23;;;;;;;5.63;4.57;;;10.80;99.90;;;;;;5050878;28;20435;-66
2021/10/14 08:12:48;;;;;;;4.20;3.60;;;10.90;99.90;;;;;;5049897;28;20836;-66
2021/10/14 08:15:14;;;;;;;4.00;3.60;;;11.20;99.90;;;;;;5045490;28;20178;-67
2021/10/14 08:17:39;;;;;;;3.70;3.40;;;11.30;99.90;;;;;;5046952;28;20197;-67
2021/10/14 08:20:06;;;;;;;6.20;4.00;;;11.90;99.90;;;;;;5049272;28;20189;-68
2021/10/14 08:22:31;;;;;;;6.00;3.83;;;13.00;99.90;;;;;;5045976;28;20192;-65
2021/10/14 08:24:59;;;;;;;5.70;3.87;;;13.70;99.90;;;;;;5048608;28;20466;-67
2021/10/14 08:27:25;;;;;;;3.67;3.37;;;13.20;99.90;;;;;;5050372;28;20616;-66
2021/10/14 08:29:51;;;;;;;4.67;3.90;;;13.50;99.90;;;;;;5050753;28;20475;-66
2021/10/14 08:32:17;;;;;;;4.80;3.63;;;14.50;99.90;;;;;;5054368;28;20809;-65
2021/10/14 08:34:43;;;;;;;5.60;3.90;;;14.80;99.90;;;;;;5054513;28;20170;-66
2021/10/14 08:37:08;;;;;;;7.80;4.87;;;14.80;99.90;;;;;;5054142;28;20434;-66
2021/10/14 08:39:34;;;;;;;4.53;4.20;;;14.40;99.90;;;;;;5047409;28;20208;-67
2021/10/14 08:41:59;;;;;;;6.37;4.17;;;14.30;99.90;;;;;;5050351;28;20177;-66
2021/10/14 08:44:26;;;;;;;3.90;3.50;;;14.90;99.90;;;;;;5051148;28;20227;-67
2021/10/14 08:46:54;;;;;;;6.37;5.03;;;16.60;99.90;;;;;;5053791;28;20205;-65
2021/10/14 08:49:20;;;;;;;3.30;2.87;;;17.80;99.90;;;;;;5053347;28;20475;-66
2021/10/14 08:51:46;;;;;;;4.50;3.30;;;19.40;99.90;;;;;;5054128;28;20500;-65
2021/10/14 08:54:12;;;;;;;4.10;3.70;;;19.70;96.50;;;;;;5054053;28;21182;-67
2021/10/14 08:56:43;;;;;;;7.63;3.83;;;19.60;94.70;;;;;;5050196;28;20193;-64
2021/10/14 08:59:09;;;;;;;3.37;3.07;;;20.10;93.10;;;;;;5053208;28;20678;-68
2021/10/14 09:01:34;;;;;;;3.80;3.50;;;20.20;91.90;;;;;;5051779;28;20837;-70
2021/10/14 09:04:11;;;;;;;4.80;3.63;;;20.10;91.90;;;;;;5053351;28;20512;-67
2021/10/14 09:06:39;;;;;;;3.77;3.30;;;21.50;90.50;;;;;;5053324;28;20255;-67
2021/10/14 09:09:05;;;;;;;2.70;2.40;;;20.50;85.30;;;;;;5053608;28;20464;-67
2021/10/14 09:11:31;;;;;;;3.50;2.73;;;20.30;88.90;;;;;;5050914;28;20987;-67
2021/10/14 09:14:03;;;;;;;3.00;2.60;;;20.80;86.40;;;;;;5050826;28;20416;-66
2021/10/14 09:16:33;;;;;;;3.70;3.40;;;21.70;83.50;;;;;;5049584;28;20185;-66
2021/10/14 09:19:19;;;;;;;4.40;3.43;;;21.30;81.60;;;;;;5050768;28;20606;-68
2021/10/14 09:21:56;;;;;;;4.20;3.70;;;22.30;79.90;;;;;;5051399;28;20467;-68
2021/10/14 09:24:30;;;;;;;3.20;2.80;;;23.10;75.20;;;;;;5049430;28;20432;-65
2021/10/14 09:26:57;;;;;;;5.10;3.60;;;22.20;73.60;;;;;;5052303;28;20439;-64
2021/10/14 09:29:26;;;;;;;4.57;3.00;;;21.30;75.50;;;;;;5053735;28;20537;-65
2021/10/14 09:31:57;;;;;;;3.90;3.50;;;21.10;75.50;;;;;;5054116;28;20415;-65
2021/10/14 09:34:23;;;;;;;9.07;7.67;;;20.60;75.80;;;;;;5054133;28;20431;-64
2021/10/14 09:36:48;;;;;;;5.27;3.20;;;20.40;77.50;;;;;;5054150;28;20423;-66
2021/10/14 09:39:14;;;;;;;4.40;3.50;;;20.90;77.10;;;;;;5053788;28;20447;-68
2021/10/14 09:41:41;;;;;;;4.73;3.20;;;22.20;75.10;;;;;;5053786;28;20197;-65
2021/10/14 09:44:28;;;;;;;3.63;3.30;;;22.30;71.40;;;;;;5053649;28;20186;-65
2021/10/14 09:46:56;;;;;;;3.67;3.07;;;22.30;70.70;;;;;;5053507;28;21004;-65
2021/10/14 09:49:27;;;;;;;3.63;3.33;;;23.60;66.50;;;;;;5050311;28;20468;-66
2021/10/14 09:51:53;;;;;;;3.27;2.90;;;24.20;63.80;;;;;;5034101;28;20448;-65
2021/10/14 09:54:19;;;;;;;5.23;3.40;;;23.20;64.10;;;;;;5042121;28;20467;-65
2021/10/14 09:56:45;;;;;;;3.40;2.70;;;23.40;63.80;;;;;;5050311;28;20327;-66
2021/10/14 09:59:10;;;;;;;4.13;3.10;;;24.60;59.70;;;;;;5034776;28;21005;-65
2021/10/14 10:01:41;;;;;;;3.40;3.00;;;25.40;57.40;;;;;;5050395;28;20331;-65
2021/10/14 10:04:08;;;;;;;3.13;2.83;;;25.70;57.10;;;;;;5035631;23;20313;-65
2021/10/14 10:06:36;;;;;;;3.10;2.60;;;26.20;55.30;;;;;;5013571;28;20418;-64
2021/10/14 10:09:15;;;;;;;3.47;2.50;;;27.00;54.90;;;;;;5013709;28;20465;-63
2021/10/14 10:11:47;;;;;;;7.40;3.13;;;28.50;52.70;;;;;;5013876;28;20417;-64
2021/10/14 10:14:13;;;;;;;3.60;3.30;;;28.50;48.80;;;;;;5032141;28;20548;-64
2021/10/14 10:16:55;;;;;;;3.70;2.90;;;26.90;48.70;;;;;;5033545;28;20427;-65
2021/10/14 10:19:41;;;;;;;4.43;2.40;;;25.40;50.70;;;;;;5032882;28;20421;-64
2021/10/14 10:22:08;;;;;;;4.00;2.37;;;26.60;49.90;;;;;;5033273;28;20421;-63
2021/10/14 10:24:34;;;;;;;4.57;2.90;;;29.00;48.30;;;;;;5033088;28;20437;-64
2021/10/14 10:27:05;;;;;;;2.93;2.57;;;30.40;44.60;;;;;;5033205;28;20412;-65
2021/10/14 10:29:37;;;;;;;2.73;2.43;;;29.10;45.40;;;;;;5032817;28;20452;-65
2021/10/14 10:32:02;;;;;;;2.57;2.23;;;28.80;45.30;;;;;;5033215;28;20425;-65
2021/10/14 10:37:11;;;;;;;2.80;2.60;;;28.80;45.20;;;;;;5032942;28;20181;-64
2021/10/14 10:39:54;;;;;;;3.13;2.33;;;28.30;45.00;;;;;;5031746;28;20443;-67
2021/10/14 10:42:25;;;;;;;2.80;2.60;;;28.50;44.60;;;;;;5032790;28;20468;-64
2021/10/14 10:44:51;;;;;;;3.40;2.37;;;26.80;44.40;;;;;;5032408;28;20460;-64
2021/10/14 10:47:45;;;;;;;1.90;1.70;;;27.20;45.70;;;;;;5032329;28;20443;-64
2021/10/14 10:50:22;;;;;;;2.90;1.90;;;27.70;44.70;;;;;;5032773;28;20768;-65
2021/10/14 10:53:05;;;;;;;3.40;2.03;;;27.40;44.80;;;;;;5031880;28;20433;-64
2021/10/14 10:55:41;;;;;;;2.97;2.73;;;26.60;45.70;;;;;;5032590;28;20445;-64
2021/10/14 10:58:09;;;;;;;4.57;2.27;;;27.00;46.10;;;;;;5031871;28;20431;-65
2021/10/14 11:00:37;;;;;;;2.37;2.17;;;27.50;46.30;;;;;;5032440;28;20496;-64
2021/10/14 11:03:20;;;;;;;3.50;2.70;;;26.80;46.30;;;;;;5026558;28;20472;-64
2021/10/14 11:05:54;;;;;;;3.97;3.37;;;27.00;45.90;;;;;;5027729;28;20957;-63
2021/10/14 11:08:26;;;;;;;3.77;3.40;;;26.20;45.80;;;;;;5033061;28;20467;-65
2021/10/14 11:10:57;;;;;;;3.13;2.47;;;28.20;45.30;;;;;;5035665;28;20439;-65
2021/10/14 11:13:25;;;;;;;2.63;2.43;;;29.30;42.70;;;;;;5024184;28;20456;-65
2021/10/14 11:15:53;;;;;;;2.60;2.40;;;28.80;44.50;;;;;;5035144;28;20862;-65
2021/10/14 11:18:20;;;;;;;3.20;2.80;;;28.40;44.70;;;;;;5037908;28;20452;-65
2021/10/14 11:20:50;;;;;;;2.40;2.20;;;29.80;43.60;;;;;;5023450;28;20430;-65
2021/10/14 11:23:15;;;;;;;3.00;2.63;;;30.00;41.80;;;;;;5037674;28;20946;-65
2021/10/14 11:25:41;;;;;;;5.07;2.90;;;29.70;42.50;;;;;;5034966;28;20435;-65
2021/10/14 11:28:10;;;;;;;3.00;2.80;;;28.10;43.50;;;;;;5036047;28;20205;-63
2021/10/14 11:30:39;;;;;;;3.60;3.27;;;27.30;44.60;;;;;;5026737;28;20181;-63
2021/10/14 11:33:12;;;;;;;3.50;3.30;;;27.10;44.60;;;;;;5031778;28;20449;-65
2021/10/14 11:35:40;;;;;;;4.20;3.80;;;25.80;46.90;;;;;;5031600;28;20429;-64
2021/10/14 11:38:11;;;;;;;3.43;3.00;;;24.50;49.00;;;;;;5043462;28;20432;-63
2021/10/14 11:40:39;;;;;;;3.93;3.20;;;24.90;49.00;;;;;;5044187;28;20437;-65
2021/10/14 11:43:05;;;;;;;3.57;3.20;;;25.20;48.50;;;;;;5035158;28;20458;-64
2021/10/14 11:45:31;;;;;;;4.00;3.03;;;25.00;48.80;;;;;;5035130;28;20459;-64
2021/10/14 11:47:56;;;;;;;4.03;3.60;;;25.00;48.20;;;;;;5035399;28;20934;-65
2021/10/14 11:50:31;;;;;;;4.53;3.30;;;24.20;49.30;;;;;;5041543;28;20178;-65
2021/10/14 11:53:02;;;;;;;4.50;3.60;;;23.90;51.10;;;;;;5033747;28;20201;-63
2021/10/14 11:55:27;;;;;;;4.20;3.80;;;24.40;50.40;;;;;;5043611;28;20499;-65
2021/10/14 11:57:58;;;;;;;4.67;3.53;;;23.60;51.00;;;;;;5046894;28;20511;-64
2021/10/14 12:00:24;;;;;;;3.77;3.47;;;24.20;51.60;;;;;;5033086;28;20281;-65
2021/10/14 12:02:50;;;;;;;4.33;3.73;;;25.10;49.30;;;;;;5033973;28;20567;-65
2021/10/14 12:05:16;;;;;;;5.30;3.70;;;23.60;50.50;;;;;;5033484;28;20459;-65
2021/10/14 12:07:43;;;;;;;4.50;3.67;;;23.30;53.30;;;;;;5044694;28;20456;-65
2021/10/14 12:10:33;;;;;;;8.03;5.03;;;26.00;49.50;;;;;;5043678;28;20205;-64
2021/10/14 12:13:04;;;;;;;5.20;3.77;;;28.20;46.50;;;;;;5054259;28;20501;-64
2021/10/14 12:15:29;;;;;;;4.30;3.90;;;30.70;44.10;;;;;;5052457;28;20784;-64
2021/10/14 12:17:55;;;;;;;3.73;3.10;;;32.10;41.90;;;;;;5050789;28;20485;-65
2021/10/14 12:20:23;;;;;;;4.73;3.50;;;34.30;40.60;;;;;;5036329;28;20174;-64
2021/10/14 12:22:54;;;;;;;3.17;2.87;;;35.10;38.70;;;;;;5035005;28;20590;-64
2021/10/14 12:25:36;;;;;;;4.87;3.60;;;33.20;38.70;;;;;;5036461;28;20431;-65
2021/10/14 12:28:10;;;;;;;3.63;3.33;;;33.80;38.40;;;;;;5042705;28;20496;-65
2021/10/14 12:30:39;;;;;;;3.90;3.60;;;33.40;38.30;;;;;;5037844;28;20933;-65
2021/10/14 12:33:10;;;;;;;4.20;3.90;;;33.80;38.10;;;;;;5041863;28;20487;-64
2021/10/14 12:35:37;;;;;;;4.17;3.80;;;34.20;37.40;;;;;;5036576;28;20511;-65
2021/10/14 12:38:11;;;;;;;3.33;3.03;;;33.50;37.40;;;;;;5040754;28;20527;-64
2021/10/14 12:40:46;;;;;;;3.47;3.27;;;30.90;39.70;;;;;;5048173;28;20481;-65
2021/10/14 12:43:22;;;;;;;4.27;3.83;;;28.60;41.50;;;;;;5040727;28;20550;-65
2021/10/14 12:51:18;;;;;;;3.87;3.57;;;27.10;44.20;;;;;;5048610;28;20631;-63
2021/10/14 12:53:45;;;;;;;3.90;3.47;;;26.50;45.00;;;;;;5044897;28;20894;-65
2021/10/14 12:56:14;;;;;;;3.23;2.97;;;27.40;44.80;;;;;;5035721;28;20769;-63
2021/10/14 12:58:39;;;;;;;5.20;3.47;;;30.10;42.80;;;;;;5047134;28;20427;-65
2021/10/14 13:01:32;;;;;;;4.00;3.60;;;31.90;40.50;;;;;;5041318;28;20435;-65